sensor_id;sensor_type;location;lat;lon;timestamp;temperature;humidity
18823;DHT22;9540;51.550;7.980;2023-02-08T00:02:22;-4.00;99.90
18823;DHT22;9540;51.550;7.980;2023-02-08T00:04:51;-4.10;99.90
18823;DHT22;9540;51.550;7.980;2023-02-08T00:07:19;-4.10;99.90
18823;DHT22;9540;51.550;7.980;2023-02-08T00:09:47;-4.10;99.90
18823;DHT22;9540;51.550;7.980;2023-02-08T00:12:14;-3.90;99.90
18823;DHT22;9540;51.550;7.980;2023-02-08T00:14:42;-3.80;99.90
18823;DHT22;9540;51.550;7.980;2023-02-08T00:17:09;-3.70;99.90
18823;DHT22;9540;51.550;7.980;2023-02-08T00:19:36;-3.50;99.90
18823;DHT22;9540;51.550;7.980;2023-02-08T00:22:03;-3.50;99.90
18823;DHT22;9540;51.550;7.980;2023-02-08T00:24:30;-3.40;99.90
18823;DHT22;9540;51.550;7.980;2023-02-08T00:26:59;-3.40;99.90
18823;DHT22;9540;51.550;7.980;2023-02-08T00:29:26;-3.40;99.90
18823;DHT22;9540;51.550;7.980;2023-02-08T00:31:53;-3.40;99.90
18823;DHT22;9540;51.550;7.980;2023-02-08T00:34:20;-3.30;99.90
18823;DHT22;9540;51.550;7.980;2023-02-08T00:36:47;-3.30;99.90
18823;DHT22;9540;51.550;7.980;2023-02-08T00:39:14;-3.20;99.90
18823;DHT22;9540;51.550;7.980;2023-02-08T00:41:41;-3.30;99.90
18823;DHT22;9540;51.550;7.980;2023-02-08T00:44:10;-3.20;99.90
18823;DHT22;9540;51.550;7.980;2023-02-08T00:46:36;-3.10;99.90
18823;DHT22;9540;51.550;7.980;2023-02-08T00:49:03;-3.00;99.90
18823;DHT22;9540;51.550;7.980;2023-02-08T00:51:30;-3.10;99.90
18823;DHT22;9540;51.550;7.980;2023-02-08T00:53:57;-3.10;99.90
18823;DHT22;9540;51.550;7.980;2023-02-08T00:56:24;-3.10;99.90
18823;DHT22;9540;51.550;7.980;2023-02-08T00:58:51;-3.20;99.90
18823;DHT22;9540;51.550;7.980;2023-02-08T01:01:19;-3.20;99.90
18823;DHT22;9540;51.550;7.980;2023-02-08T01:03:46;-3.20;99.90
18823;DHT22;9540;51.550;7.980;2023-02-08T01:06:15;-3.30;99.90
18823;DHT22;9540;51.550;7.980;2023-02-08T01:08:42;-3.40;99.90
18823;DHT22;9540;51.550;7.980;2023-02-08T01:11:12;-3.50;99.90
18823;DHT22;9540;51.550;7.980;2023-02-08T01:13:40;-3.60;99.90
18823;DHT22;9540;51.550;7.980;2023-02-08T01:16:09;-3.60;99.90
18823;DHT22;9540;51.550;7.980;2023-02-08T01:18:38;-3.60;99.90
18823;DHT22;9540;51.550;7.980;2023-02-08T01:21:07;-3.50;99.90
18823;DHT22;9540;51.550;7.980;2023-02-08T01:23:34;-3.50;99.90
18823;DHT22;9540;51.550;7.980;2023-02-08T01:26:01;-3.40;99.90
18823;DHT22;9540;51.550;7.980;2023-02-08T01:28:28;-3.50;99.90
18823;DHT22;9540;51.550;7.980;2023-02-08T01:30:55;-3.50;99.90
18823;DHT22;9540;51.550;7.980;2023-02-08T01:33:22;-3.60;99.90
18823;DHT22;9540;51.550;7.980;2023-02-08T01:35:51;-3.60;99.90
18823;DHT22;9540;51.550;7.980;2023-02-08T01:38:19;-3.50;99.90
18823;DHT22;9540;51.550;7.980;2023-02-08T01:40:46;-3.30;99.90
18823;DHT22;9540;51.550;7.980;2023-02-08T01:43:20;-3.00;99.90
18823;DHT22;9540;51.550;7.980;2023-02-08T01:45:48;-2.80;99.90
18823;DHT22;9540;51.550;7.980;2023-02-08T01:48:17;-2.70;99.90
18823;DHT22;9540;51.550;7.980;2023-02-08T01:50:52;-2.70;99.90
18823;DHT22;9540;51.550;7.980;2023-02-08T01:53:20;-2.90;99.90
18823;DHT22;9540;51.550;7.980;2023-02-08T01:55:53;-3.10;99.90
18823;DHT22;9540;51.550;7.980;2023-02-08T01:58:21;-3.20;99.90
18823;DHT22;9540;51.550;7.980;2023-02-08T02:00:49;-3.30;99.90
18823;DHT22;9540;51.550;7.980;2023-02-08T02:03:16;-3.40;99.90
18823;DHT22;9540;51.550;7.980;2023-02-08T02:05:46;-3.50;99.90
18823;DHT22;9540;51.550;7.980;2023-02-08T02:08:17;-3.60;99.90
18823;DHT22;9540;51.550;7.980;2023-02-08T02:10:46;-3.70;99.90
18823;DHT22;9540;51.550;7.980;2023-02-08T02:13:16;-3.70;99.90
18823;DHT22;9540;51.550;7.980;2023-02-08T02:15:44;-3.70;99.90
18823;DHT22;9540;51.550;7.980;2023-02-08T02:18:14;-3.70;99.90
18823;DHT22;9540;51.550;7.980;2023-02-08T02:21:08;-3.70;99.90
18823;DHT22;9540;51.550;7.980;2023-02-08T02:24:02;-3.60;99.90
18823;DHT22;9540;51.550;7.980;2023-02-08T02:29:45;-3.50;99.90
18823;DHT22;9540;51.550;7.980;2023-02-08T02:32:28;-3.40;99.90
18823;DHT22;9540;51.550;7.980;2023-02-08T02:35:02;-3.40;99.90
18823;DHT22;9540;51.550;7.980;2023-02-08T02:37:40;-3.40;99.90
18823;DHT22;9540;51.550;7.980;2023-02-08T02:40:13;-3.40;99.90
18823;DHT22;9540;51.550;7.980;2023-02-08T02:42:51;-3.30;99.90
18823;DHT22;9540;51.550;7.980;2023-02-08T02:45:45;-3.10;99.90
18823;DHT22;9540;51.550;7.980;2023-02-08T02:48:21;-3.00;99.90
18823;DHT22;9540;51.550;7.980;2023-02-08T02:50:53;-3.00;99.90
18823;DHT22;9540;51.550;7.980;2023-02-08T02:53:25;-2.90;99.90
18823;DHT22;9540;51.550;7.980;2023-02-08T02:55:58;-2.80;99.90
18823;DHT22;9540;51.550;7.980;2023-02-08T02:58:26;-2.70;99.90
18823;DHT22;9540;51.550;7.980;2023-02-08T03:00:55;-2.60;99.90
18823;DHT22;9540;51.550;7.980;2023-02-08T03:03:26;-2.50;99.90
18823;DHT22;9540;51.550;7.980;2023-02-08T03:05:57;-2.40;99.90
18823;DHT22;9540;51.550;7.980;2023-02-08T03:11:23;-2.40;99.90
18823;DHT22;9540;51.550;7.980;2023-02-08T03:14:02;-2.50;99.90
18823;DHT22;9540;51.550;7.980;2023-02-08T03:16:36;-2.60;99.90
18823;DHT22;9540;51.550;7.980;2023-02-08T03:19:09;-2.70;99.90
18823;DHT22;9540;51.550;7.980;2023-02-08T03:21:42;-2.80;99.90
18823;DHT22;9540;51.550;7.980;2023-02-08T03:24:19;-2.90;99.90
18823;DHT22;9540;51.550;7.980;2023-02-08T03:26:53;-2.90;99.90
18823;DHT22;9540;51.550;7.980;2023-02-08T03:29:28;-3.10;99.90
18823;DHT22;9540;51.550;7.980;2023-02-08T03:31:59;-3.20;99.90
18823;DHT22;9540;51.550;7.980;2023-02-08T03:34:34;-3.30;99.90
18823;DHT22;9540;51.550;7.980;2023-02-08T03:37:12;-3.40;99.90
18823;DHT22;9540;51.550;7.980;2023-02-08T03:39:42;-3.60;99.90
18823;DHT22;9540;51.550;7.980;2023-02-08T03:42:16;-3.60;99.90
18823;DHT22;9540;51.550;7.980;2023-02-08T03:44:50;-3.60;99.90
18823;DHT22;9540;51.550;7.980;2023-02-08T03:47:21;-3.40;99.90
18823;DHT22;9540;51.550;7.980;2023-02-08T03:49:53;-3.30;99.90
18823;DHT22;9540;51.550;7.980;2023-02-08T03:52:21;-3.30;99.90
18823;DHT22;9540;51.550;7.980;2023-02-08T03:54:51;-3.10;99.90
18823;DHT22;9540;51.550;7.980;2023-02-08T03:57:22;-3.10;99.90
18823;DHT22;9540;51.550;7.980;2023-02-08T03:59:53;-3.10;99.90
18823;DHT22;9540;51.550;7.980;2023-02-08T04:02:23;-3.10;99.90
18823;DHT22;9540;51.550;7.980;2023-02-08T04:04:54;-3.20;99.90
18823;DHT22;9540;51.550;7.980;2023-02-08T04:07:22;-3.10;99.90
18823;DHT22;9540;51.550;7.980;2023-02-08T04:09:49;-3.20;99.90
18823;DHT22;9540;51.550;7.980;2023-02-08T04:12:16;-3.20;99.90
18823;DHT22;9540;51.550;7.980;2023-02-08T04:14:43;-3.30;99.90
18823;DHT22;9540;51.550;7.980;2023-02-08T04:17:09;-3.40;99.90
18823;DHT22;9540;51.550;7.980;2023-02-08T04:19:36;-3.50;99.90
18823;DHT22;9540;51.550;7.980;2023-02-08T04:22:05;-3.50;99.90
18823;DHT22;9540;51.550;7.980;2023-02-08T04:24:32;-3.50;99.90
18823;DHT22;9540;51.550;7.980;2023-02-08T04:26:59;-3.40;99.90
18823;DHT22;9540;51.550;7.980;2023-02-08T04:29:26;-3.40;99.90
18823;DHT22;9540;51.550;7.980;2023-02-08T04:31:53;-3.40;99.90
18823;DHT22;9540;51.550;7.980;2023-02-08T04:34:20;-3.30;99.90
18823;DHT22;9540;51.550;7.980;2023-02-08T04:36:49;-3.30;99.90
18823;DHT22;9540;51.550;7.980;2023-02-08T04:39:17;-3.20;99.90
18823;DHT22;9540;51.550;7.980;2023-02-08T04:41:44;-3.20;99.90
18823;DHT22;9540;51.550;7.980;2023-02-08T04:44:11;-3.10;99.90
18823;DHT22;9540;51.550;7.980;2023-02-08T04:46:39;-3.10;99.90
18823;DHT22;9540;51.550;7.980;2023-02-08T04:49:06;-3.10;99.90
18823;DHT22;9540;51.550;7.980;2023-02-08T04:51:33;-3.10;99.90
18823;DHT22;9540;51.550;7.980;2023-02-08T04:54:00;-3.20;99.90
18823;DHT22;9540;51.550;7.980;2023-02-08T04:56:28;-3.30;99.90
18823;DHT22;9540;51.550;7.980;2023-02-08T04:58:55;-3.40;99.90
18823;DHT22;9540;51.550;7.980;2023-02-08T05:01:22;-3.50;99.90
18823;DHT22;9540;51.550;7.980;2023-02-08T05:03:49;-3.50;99.90
18823;DHT22;9540;51.550;7.980;2023-02-08T05:06:15;-3.50;99.90
18823;DHT22;9540;51.550;7.980;2023-02-08T05:08:42;-3.50;99.90
18823;DHT22;9540;51.550;7.980;2023-02-08T05:11:09;-3.60;99.90
18823;DHT22;9540;51.550;7.980;2023-02-08T05:13:38;-3.60;99.90
18823;DHT22;9540;51.550;7.980;2023-02-08T05:16:05;-3.70;99.90
18823;DHT22;9540;51.550;7.980;2023-02-08T05:18:32;-3.70;99.90
18823;DHT22;9540;51.550;7.980;2023-02-08T05:21:00;-3.70;99.90
18823;DHT22;9540;51.550;7.980;2023-02-08T05:23:28;-3.70;99.90
18823;DHT22;9540;51.550;7.980;2023-02-08T05:25:56;-3.90;99.90
18823;DHT22;9540;51.550;7.980;2023-02-08T05:28:23;-3.90;99.90
18823;DHT22;9540;51.550;7.980;2023-02-08T05:30:52;-4.10;99.90
18823;DHT22;9540;51.550;7.980;2023-02-08T05:33:19;-4.20;99.90
18823;DHT22;9540;51.550;7.980;2023-02-08T05:35:46;-4.20;99.90
18823;DHT22;9540;51.550;7.980;2023-02-08T05:38:13;-4.20;99.90
18823;DHT22;9540;51.550;7.980;2023-02-08T05:40:40;-4.20;99.90
18823;DHT22;9540;51.550;7.980;2023-02-08T05:43:07;-4.20;99.90
18823;DHT22;9540;51.550;7.980;2023-02-08T05:45:33;-4.30;99.90
18823;DHT22;9540;51.550;7.980;2023-02-08T05:48:02;-4.30;99.90
18823;DHT22;9540;51.550;7.980;2023-02-08T05:50:29;-4.40;99.90
18823;DHT22;9540;51.550;7.980;2023-02-08T05:52:56;-4.50;99.90
18823;DHT22;9540;51.550;7.980;2023-02-08T05:55:23;-4.60;99.90
18823;DHT22;9540;51.550;7.980;2023-02-08T05:57:54;-4.60;99.90
18823;DHT22;9540;51.550;7.980;2023-02-08T06:00:21;-4.60;99.90
18823;DHT22;9540;51.550;7.980;2023-02-08T06:02:48;-4.60;99.90
18823;DHT22;9540;51.550;7.980;2023-02-08T06:05:17;-4.60;99.90
18823;DHT22;9540;51.550;7.980;2023-02-08T06:07:44;-4.60;99.90
18823;DHT22;9540;51.550;7.980;2023-02-08T06:10:11;-4.70;99.90
18823;DHT22;9540;51.550;7.980;2023-02-08T06:12:38;-4.70;99.90
18823;DHT22;9540;51.550;7.980;2023-02-08T06:15:05;-4.80;99.90
18823;DHT22;9540;51.550;7.980;2023-02-08T06:17:32;-4.80;99.90
18823;DHT22;9540;51.550;7.980;2023-02-08T06:19:59;-4.90;99.90
18823;DHT22;9540;51.550;7.980;2023-02-08T06:22:27;-4.90;99.90
18823;DHT22;9540;51.550;7.980;2023-02-08T06:24:54;-5.00;99.90
18823;DHT22;9540;51.550;7.980;2023-02-08T06:27:21;-5.00;99.90
18823;DHT22;9540;51.550;7.980;2023-02-08T06:29:48;-5.10;99.90
18823;DHT22;9540;51.550;7.980;2023-02-08T06:32:16;-5.10;99.90
18823;DHT22;9540;51.550;7.980;2023-02-08T06:34:44;-5.20;99.90
18823;DHT22;9540;51.550;7.980;2023-02-08T06:37:12;-5.30;99.90
18823;DHT22;9540;51.550;7.980;2023-02-08T06:39:41;-5.30;99.90
18823;DHT22;9540;51.550;7.980;2023-02-08T06:42:08;-5.30;99.90
18823;DHT22;9540;51.550;7.980;2023-02-08T06:44:35;-5.30;99.90
18823;DHT22;9540;51.550;7.980;2023-02-08T06:47:05;-5.20;99.90
18823;DHT22;9540;51.550;7.980;2023-02-08T06:49:32;-5.20;99.90
18823;DHT22;9540;51.550;7.980;2023-02-08T06:51:59;-5.10;99.90
18823;DHT22;9540;51.550;7.980;2023-02-08T06:54:26;-5.00;99.90
18823;DHT22;9540;51.550;7.980;2023-02-08T06:56:54;-5.10;99.90
18823;DHT22;9540;51.550;7.980;2023-02-08T06:59:21;-5.10;99.90
18823;DHT22;9540;51.550;7.980;2023-02-08T07:01:48;-5.10;99.90
18823;DHT22;9540;51.550;7.980;2023-02-08T07:04:15;-5.10;99.90
18823;DHT22;9540;51.550;7.980;2023-02-08T07:06:43;-5.10;99.90
18823;DHT22;9540;51.550;7.980;2023-02-08T07:09:10;-5.00;99.90
18823;DHT22;9540;51.550;7.980;2023-02-08T07:11:37;-5.00;99.90
18823;DHT22;9540;51.550;7.980;2023-02-08T07:14:05;-4.90;99.90
18823;DHT22;9540;51.550;7.980;2023-02-08T07:16:32;-4.80;99.90
18823;DHT22;9540;51.550;7.980;2023-02-08T07:18:59;-4.80;99.90
18823;DHT22;9540;51.550;7.980;2023-02-08T07:21:35;-4.80;99.90
18823;DHT22;9540;51.550;7.980;2023-02-08T07:24:02;-4.70;99.90
18823;DHT22;9540;51.550;7.980;2023-02-08T07:26:29;-4.40;99.90
18823;DHT22;9540;51.550;7.980;2023-02-08T07:28:59;-4.00;99.90
18823;DHT22;9540;51.550;7.980;2023-02-08T07:31:27;-3.40;99.90
18823;DHT22;9540;51.550;7.980;2023-02-08T07:33:58;-2.70;99.90
18823;DHT22;9540;51.550;7.980;2023-02-08T07:36:24;-1.90;99.90
18823;DHT22;9540;51.550;7.980;2023-02-08T07:38:51;-1.60;99.90
18823;DHT22;9540;51.550;7.980;2023-02-08T07:41:18;-1.70;99.90
18823;DHT22;9540;51.550;7.980;2023-02-08T07:43:45;-1.60;99.90
18823;DHT22;9540;51.550;7.980;2023-02-08T07:46:14;-1.30;99.90
18823;DHT22;9540;51.550;7.980;2023-02-08T07:48:43;-0.70;99.90
18823;DHT22;9540;51.550;7.980;2023-02-08T07:51:11;-0.20;99.90
18823;DHT22;9540;51.550;7.980;2023-02-08T07:53:38;0.30;99.90
18823;DHT22;9540;51.550;7.980;2023-02-08T07:56:05;0.90;99.90
18823;DHT22;9540;51.550;7.980;2023-02-08T07:58:35;1.10;99.90
18823;DHT22;9540;51.550;7.980;2023-02-08T08:01:02;1.30;99.90
18823;DHT22;9540;51.550;7.980;2023-02-08T08:03:29;1.20;99.90
18823;DHT22;9540;51.550;7.980;2023-02-08T08:06:00;1.20;99.90
18823;DHT22;9540;51.550;7.980;2023-02-08T08:08:27;1.30;99.90
18823;DHT22;9540;51.550;7.980;2023-02-08T08:10:54;1.60;99.90
18823;DHT22;9540;51.550;7.980;2023-02-08T08:13:21;2.00;99.90
18823;DHT22;9540;51.550;7.980;2023-02-08T08:15:48;2.70;99.90
18823;DHT22;9540;51.550;7.980;2023-02-08T08:18:16;3.50;99.90
18823;DHT22;9540;51.550;7.980;2023-02-08T08:20:43;4.40;99.90
18823;DHT22;9540;51.550;7.980;2023-02-08T08:23:11;5.20;99.90
18823;DHT22;9540;51.550;7.980;2023-02-08T08:25:38;6.00;99.90
18823;DHT22;9540;51.550;7.980;2023-02-08T08:28:05;6.70;99.90
18823;DHT22;9540;51.550;7.980;2023-02-08T08:30:32;7.30;99.90
18823;DHT22;9540;51.550;7.980;2023-02-08T08:32:59;7.70;91.20
18823;DHT22;9540;51.550;7.980;2023-02-08T08:35:26;8.00;92.20
18823;DHT22;9540;51.550;7.980;2023-02-08T08:37:52;8.40;94.50
18823;DHT22;9540;51.550;7.980;2023-02-08T08:40:21;8.60;90.70
18823;DHT22;9540;51.550;7.980;2023-02-08T08:42:48;8.60;92.60
18823;DHT22;9540;51.550;7.980;2023-02-08T08:45:15;8.70;90.50
18823;DHT22;9540;51.550;7.980;2023-02-08T08:47:42;9.00;85.60
18823;DHT22;9540;51.550;7.980;2023-02-08T08:50:09;9.10;79.10
18823;DHT22;9540;51.550;7.980;2023-02-08T08:52:36;10.20;78.60
18823;DHT22;9540;51.550;7.980;2023-02-08T08:55:05;11.10;75.80
18823;DHT22;9540;51.550;7.980;2023-02-08T08:57:33;12.00;72.70
18823;DHT22;9540;51.550;7.980;2023-02-08T09:00:00;11.80;69.50
18823;DHT22;9540;51.550;7.980;2023-02-08T09:02:27;10.70;69.80
18823;DHT22;9540;51.550;7.980;2023-02-08T09:04:54;9.80;70.00
18823;DHT22;9540;51.550;7.980;2023-02-08T09:07:24;9.80;70.90
18823;DHT22;9540;51.550;7.980;2023-02-08T09:09:51;10.00;72.60
18823;DHT22;9540;51.550;7.980;2023-02-08T09:12:18;10.10;71.30
18823;DHT22;9540;51.550;7.980;2023-02-08T09:14:47;10.40;72.40
18823;DHT22;9540;51.550;7.980;2023-02-08T09:17:14;11.60;69.70
18823;DHT22;9540;51.550;7.980;2023-02-08T09:19:48;11.50;67.20
18823;DHT22;9540;51.550;7.980;2023-02-08T09:22:15;12.20;66.70
18823;DHT22;9540;51.550;7.980;2023-02-08T09:24:42;12.60;67.60
18823;DHT22;9540;51.550;7.980;2023-02-08T09:27:09;13.10;64.50
18823;DHT22;9540;51.550;7.980;2023-02-08T09:29:35;13.30;66.00
18823;DHT22;9540;51.550;7.980;2023-02-08T09:32:04;13.00;66.80
18823;DHT22;9540;51.550;7.980;2023-02-08T09:34:31;13.60;63.70
18823;DHT22;9540;51.550;7.980;2023-02-08T09:36:59;13.20;63.80
18823;DHT22;9540;51.550;7.980;2023-02-08T09:39:27;12.90;63.70
18823;DHT22;9540;51.550;7.980;2023-02-08T09:45:18;13.20;66.50
18823;DHT22;9540;51.550;7.980;2023-02-08T09:47:55;13.50;65.00
18823;DHT22;9540;51.550;7.980;2023-02-08T09:50:30;13.20;65.40
18823;DHT22;9540;51.550;7.980;2023-02-08T09:53:03;12.70;68.60
18823;DHT22;9540;51.550;7.980;2023-02-08T09:55:36;12.40;68.30
18823;DHT22;9540;51.550;7.980;2023-02-08T09:58:14;12.40;70.40
18823;DHT22;9540;51.550;7.980;2023-02-08T10:00:45;12.50;70.60
18823;DHT22;9540;51.550;7.980;2023-02-08T10:03:33;13.10;66.30
18823;DHT22;9540;51.550;7.980;2023-02-08T10:06:02;13.20;65.40
18823;DHT22;9540;51.550;7.980;2023-02-08T10:08:29;12.80;65.30
18823;DHT22;9540;51.550;7.980;2023-02-08T10:11:08;12.30;66.20
18823;DHT22;9540;51.550;7.980;2023-02-08T10:13:49;11.80;67.00
18823;DHT22;9540;51.550;7.980;2023-02-08T10:16:31;11.10;67.80
18823;DHT22;9540;51.550;7.980;2023-02-08T10:19:07;10.20;69.30
18823;DHT22;9540;51.550;7.980;2023-02-08T10:21:47;9.80;71.00
18823;DHT22;9540;51.550;7.980;2023-02-08T10:24:40;9.30;73.80
18823;DHT22;9540;51.550;7.980;2023-02-08T10:27:14;9.10;73.70
18823;DHT22;9540;51.550;7.980;2023-02-08T10:29:53;8.80;74.30
18823;DHT22;9540;51.550;7.980;2023-02-08T10:32:34;8.70;72.90
18823;DHT22;9540;51.550;7.980;2023-02-08T10:35:10;8.40;76.40
18823;DHT22;9540;51.550;7.980;2023-02-08T10:37:40;8.20;78.40
18823;DHT22;9540;51.550;7.980;2023-02-08T10:40:28;7.30;80.00
18823;DHT22;9540;51.550;7.980;2023-02-08T10:43:02;7.20;82.00
18823;DHT22;9540;51.550;7.980;2023-02-08T10:45:36;7.00;94.70
18823;DHT22;9540;51.550;7.980;2023-02-08T10:48:10;6.90;99.90
18823;DHT22;9540;51.550;7.980;2023-02-08T10:50:43;6.80;99.90
18823;DHT22;9540;51.550;7.980;2023-02-08T10:53:13;6.90;99.90
18823;DHT22;9540;51.550;7.980;2023-02-08T10:55:43;7.00;99.90
18823;DHT22;9540;51.550;7.980;2023-02-08T10:58:15;6.80;99.90
18823;DHT22;9540;51.550;7.980;2023-02-08T11:00:43;6.60;99.90
18823;DHT22;9540;51.550;7.980;2023-02-08T11:03:17;6.50;99.90
18823;DHT22;9540;51.550;7.980;2023-02-08T11:05:48;6.50;99.90
18823;DHT22;9540;51.550;7.980;2023-02-08T11:08:16;6.60;99.90
18823;DHT22;9540;51.550;7.980;2023-02-08T11:10:54;6.70;99.90
18823;DHT22;9540;51.550;7.980;2023-02-08T11:13:40;6.60;99.90
18823;DHT22;9540;51.550;7.980;2023-02-08T11:16:10;6.40;99.90
18823;DHT22;9540;51.550;7.980;2023-02-08T11:18:40;6.40;99.90
18823;DHT22;9540;51.550;7.980;2023-02-08T11:21:20;6.70;99.90
18823;DHT22;9540;51.550;7.980;2023-02-08T11:23:51;6.70;99.90
18823;DHT22;9540;51.550;7.980;2023-02-08T11:26:23;6.50;99.90
18823;DHT22;9540;51.550;7.980;2023-02-08T11:29:01;6.40;99.90
18823;DHT22;9540;51.550;7.980;2023-02-08T11:31:31;6.30;99.90
18823;DHT22;9540;51.550;7.980;2023-02-08T11:34:02;6.40;99.90
18823;DHT22;9540;51.550;7.980;2023-02-08T11:36:32;6.70;98.60
18823;DHT22;9540;51.550;7.980;2023-02-08T11:39:01;6.80;91.10
18823;DHT22;9540;51.550;7.980;2023-02-08T11:41:28;6.80;91.10
18823;DHT22;9540;51.550;7.980;2023-02-08T11:43:59;6.80;98.00
18823;DHT22;9540;51.550;7.980;2023-02-08T11:46:29;7.00;99.90
18823;DHT22;9540;51.550;7.980;2023-02-08T11:48:58;7.40;96.70
18823;DHT22;9540;51.550;7.980;2023-02-08T11:51:27;7.60;95.10
18823;DHT22;9540;51.550;7.980;2023-02-08T11:53:57;7.50;99.90
18823;DHT22;9540;51.550;7.980;2023-02-08T11:56:26;7.40;99.90
18823;DHT22;9540;51.550;7.980;2023-02-08T11:59:08;7.20;99.90
18823;DHT22;9540;51.550;7.980;2023-02-08T12:01:42;7.30;99.90
18823;DHT22;9540;51.550;7.980;2023-02-08T12:04:11;7.60;96.30
18823;DHT22;9540;51.550;7.980;2023-02-08T12:07:10;8.10;90.50
18823;DHT22;9540;51.550;7.980;2023-02-08T12:15:47;8.00;65.40
18823;DHT22;9540;51.550;7.980;2023-02-08T12:21:32;8.40;70.10
18823;DHT22;9540;51.550;7.980;2023-02-08T12:24:11;8.70;66.30
18823;DHT22;9540;51.550;7.980;2023-02-08T12:26:52;9.00;67.40
18823;DHT22;9540;51.550;7.980;2023-02-08T12:29:40;9.40;63.40
18823;DHT22;9540;51.550;7.980;2023-02-08T12:32:24;9.40;64.10
18823;DHT22;9540;51.550;7.980;2023-02-08T12:37:53;9.90;63.90
18823;DHT22;9540;51.550;7.980;2023-02-08T12:40:48;10.00;63.70
18823;DHT22;9540;51.550;7.980;2023-02-08T12:43:37;10.20;64.00
18823;DHT22;9540;51.550;7.980;2023-02-08T12:46:19;10.10;65.50
18823;DHT22;9540;51.550;7.980;2023-02-08T12:48:59;9.80;68.80
18823;DHT22;9540;51.550;7.980;2023-02-08T12:51:34;9.50;67.90
18823;DHT22;9540;51.550;7.980;2023-02-08T12:54:06;9.10;71.20
18823;DHT22;9540;51.550;7.980;2023-02-08T12:56:38;9.10;67.10
18823;DHT22;9540;51.550;7.980;2023-02-08T12:59:09;8.60;67.60
18823;DHT22;9540;51.550;7.980;2023-02-08T13:01:42;8.50;65.40
18823;DHT22;9540;51.550;7.980;2023-02-08T13:04:12;8.40;65.40
18823;DHT22;9540;51.550;7.980;2023-02-08T13:06:42;8.40;63.60
18823;DHT22;9540;51.550;7.980;2023-02-08T13:09:15;8.20;68.20
18823;DHT22;9540;51.550;7.980;2023-02-08T13:11:48;8.00;66.70
18823;DHT22;9540;51.550;7.980;2023-02-08T13:14:25;7.70;67.20
18823;DHT22;9540;51.550;7.980;2023-02-08T13:16:59;7.50;68.10
18823;DHT22;9540;51.550;7.980;2023-02-08T13:19:31;7.20;66.30
18823;DHT22;9540;51.550;7.980;2023-02-08T13:22:00;6.90;68.60
18823;DHT22;9540;51.550;7.980;2023-02-08T13:24:33;6.70;66.60
18823;DHT22;9540;51.550;7.980;2023-02-08T13:27:00;6.50;66.50
18823;DHT22;9540;51.550;7.980;2023-02-08T13:29:28;6.20;65.70
18823;DHT22;9540;51.550;7.980;2023-02-08T13:32:01;6.10;66.90
18823;DHT22;9540;51.550;7.980;2023-02-08T13:34:34;6.00;69.40
18823;DHT22;9540;51.550;7.980;2023-02-08T13:37:04;5.90;75.10
18823;DHT22;9540;51.550;7.980;2023-02-08T13:39:38;5.80;77.10
18823;DHT22;9540;51.550;7.980;2023-02-08T13:42:07;5.80;77.30
18823;DHT22;9540;51.550;7.980;2023-02-08T13:44:48;5.70;76.70
18823;DHT22;9540;51.550;7.980;2023-02-08T13:47:24;5.60;76.50
18823;DHT22;9540;51.550;7.980;2023-02-08T13:49:55;5.50;74.10
18823;DHT22;9540;51.550;7.980;2023-02-08T13:52:47;5.40;76.50
18823;DHT22;9540;51.550;7.980;2023-02-08T13:55:41;5.30;79.70
18823;DHT22;9540;51.550;7.980;2023-02-08T13:58:28;5.20;79.70
18823;DHT22;9540;51.550;7.980;2023-02-08T14:01:13;5.30;78.40
18823;DHT22;9540;51.550;7.980;2023-02-08T14:03:43;5.30;80.90
18823;DHT22;9540;51.550;7.980;2023-02-08T14:06:18;5.20;85.80
18823;DHT22;9540;51.550;7.980;2023-02-08T14:08:53;5.20;88.30
18823;DHT22;9540;51.550;7.980;2023-02-08T14:11:31;5.10;91.10
18823;DHT22;9540;51.550;7.980;2023-02-08T14:14:05;5.20;83.70
18823;DHT22;9540;51.550;7.980;2023-02-08T14:16:38;5.20;91.90
18823;DHT22;9540;51.550;7.980;2023-02-08T14:19:22;5.20;92.70
18823;DHT22;9540;51.550;7.980;2023-02-08T14:21:59;5.30;94.60
18823;DHT22;9540;51.550;7.980;2023-02-08T14:24:29;5.40;99.90
18823;DHT22;9540;51.550;7.980;2023-02-08T14:27:07;5.60;99.90
18823;DHT22;9540;51.550;7.980;2023-02-08T14:29:35;6.10;96.10
18823;DHT22;9540;51.550;7.980;2023-02-08T14:32:03;6.50;95.10
18823;DHT22;9540;51.550;7.980;2023-02-08T14:34:34;6.80;93.50
18823;DHT22;9540;51.550;7.980;2023-02-08T14:37:24;7.40;89.10
18823;DHT22;9540;51.550;7.980;2023-02-08T14:40:33;7.80;80.90
18823;DHT22;9540;51.550;7.980;2023-02-08T14:43:02;8.20;78.80
18823;DHT22;9540;51.550;7.980;2023-02-08T14:45:32;8.60;75.00
18823;DHT22;9540;51.550;7.980;2023-02-08T14:48:20;8.90;74.90
18823;DHT22;9540;51.550;7.980;2023-02-08T14:50:58;9.10;71.30
18823;DHT22;9540;51.550;7.980;2023-02-08T14:53:39;8.90;75.00
18823;DHT22;9540;51.550;7.980;2023-02-08T14:56:15;8.50;79.30
18823;DHT22;9540;51.550;7.980;2023-02-08T14:58:45;8.30;77.50
18823;DHT22;9540;51.550;7.980;2023-02-08T15:01:17;7.80;82.20
18823;DHT22;9540;51.550;7.980;2023-02-08T15:03:46;7.60;82.50
18823;DHT22;9540;51.550;7.980;2023-02-08T15:09:15;7.00;89.80
18823;DHT22;9540;51.550;7.980;2023-02-08T15:11:48;6.70;90.50
18823;DHT22;9540;51.550;7.980;2023-02-08T15:14:18;6.40;93.50
18823;DHT22;9540;51.550;7.980;2023-02-08T15:16:46;6.20;96.30
18823;DHT22;9540;51.550;7.980;2023-02-08T15:19:26;6.10;95.80
18823;DHT22;9540;51.550;7.980;2023-02-08T15:22:16;5.90;96.10
18823;DHT22;9540;51.550;7.980;2023-02-08T15:24:51;5.70;99.90
18823;DHT22;9540;51.550;7.980;2023-02-08T15:27:20;5.50;99.90
18823;DHT22;9540;51.550;7.980;2023-02-08T15:29:48;5.40;99.90
18823;DHT22;9540;51.550;7.980;2023-02-08T15:32:17;5.20;99.90
18823;DHT22;9540;51.550;7.980;2023-02-08T15:34:47;5.00;99.90
18823;DHT22;9540;51.550;7.980;2023-02-08T15:37:17;4.80;99.90
18823;DHT22;9540;51.550;7.980;2023-02-08T15:39:49;4.60;99.90
18823;DHT22;9540;51.550;7.980;2023-02-08T15:42:18;4.40;99.90
18823;DHT22;9540;51.550;7.980;2023-02-08T15:44:46;4.10;99.90
18823;DHT22;9540;51.550;7.980;2023-02-08T15:47:16;3.90;99.90
18823;DHT22;9540;51.550;7.980;2023-02-08T15:49:45;3.70;99.90
18823;DHT22;9540;51.550;7.980;2023-02-08T15:52:18;3.50;99.90
18823;DHT22;9540;51.550;7.980;2023-02-08T15:54:46;3.30;99.90
18823;DHT22;9540;51.550;7.980;2023-02-08T15:57:32;3.10;99.90
18823;DHT22;9540;51.550;7.980;2023-02-08T16:00:00;2.80;99.90
18823;DHT22;9540;51.550;7.980;2023-02-08T16:02:29;2.70;99.90
18823;DHT22;9540;51.550;7.980;2023-02-08T16:04:58;2.40;99.90
18823;DHT22;9540;51.550;7.980;2023-02-08T16:07:32;2.20;99.90
18823;DHT22;9540;51.550;7.980;2023-02-08T16:10:00;2.00;99.90
18823;DHT22;9540;51.550;7.980;2023-02-08T16:12:27;1.80;99.90
18823;DHT22;9540;51.550;7.980;2023-02-08T16:14:55;1.60;99.90
18823;DHT22;9540;51.550;7.980;2023-02-08T16:17:37;1.40;99.90
18823;DHT22;9540;51.550;7.980;2023-02-08T16:20:20;1.20;99.90
18823;DHT22;9540;51.550;7.980;2023-02-08T16:22:55;1.00;99.90
18823;DHT22;9540;51.550;7.980;2023-02-08T16:25:35;1.00;99.90
18823;DHT22;9540;51.550;7.980;2023-02-08T16:28:03;1.00;99.90
18823;DHT22;9540;51.550;7.980;2023-02-08T16:30:30;1.10;99.90
18823;DHT22;9540;51.550;7.980;2023-02-08T16:33:05;1.10;99.90
18823;DHT22;9540;51.550;7.980;2023-02-08T16:35:32;1.00;99.90
18823;DHT22;9540;51.550;7.980;2023-02-08T16:38:06;0.90;99.90
18823;DHT22;9540;51.550;7.980;2023-02-08T16:40:45;0.80;99.90
18823;DHT22;9540;51.550;7.980;2023-02-08T16:43:26;0.70;99.90